Garrison, Minnesota
Current Conditions -  °F | °C
As of 6:53 PM on Monday 24 Nov 2014 (Local Time) from KBRD Reporting Station
Light Snow Light Snow  
Wind Chill: -4°   Ceiling: 1800
Heat Index: 14°   Visibility: 7mi
Dew Point:   Wind: 22mph
Humidity: 80%   Direction: 330°NNW
Pressure: 29.8"   Gusts: 31mph
Location:  46.29°N, 93.83°W
Report Text: KBRD 250053Z AUTO 33019G27KT 7SM -SN OVC018 M10/M13 A2980 RMK AO2 PK WND 32028/0014 SNB2355 SLP114 P0000 T11001128
Loading
Personal Weather Stations






























Interactive Weather Map New forecast layout! Learn more

10-Day Weather Forecast

Advertisements
Track Severe Weather on mobile